sensor_id;sensor_type;location;lat;lon;timestamp;temperature;humidity
2867;DHT22;1441;48.886;8.728;2023-05-07T00:00:36;13.90;95.70
2867;DHT22;1441;48.886;8.728;2023-05-07T00:03:02;13.70;96.60
2867;DHT22;1441;48.886;8.728;2023-05-07T00:05:28;13.70;97.50
2867;DHT22;1441;48.886;8.728;2023-05-07T00:07:53;13.70;97.50
2867;DHT22;1441;48.886;8.728;2023-05-07T00:10:19;13.70;97.30
2867;DHT22;1441;48.886;8.728;2023-05-07T00:12:45;13.70;97.20
2867;DHT22;1441;48.886;8.728;2023-05-07T00:15:11;13.70;96.70
2867;DHT22;1441;48.886;8.728;2023-05-07T00:17:37;13.70;97.00
2867;DHT22;1441;48.886;8.728;2023-05-07T00:20:03;13.70;96.50
2867;DHT22;1441;48.886;8.728;2023-05-07T00:22:30;13.70;97.00
2867;DHT22;1441;48.886;8.728;2023-05-07T00:24:56;13.70;97.20
2867;DHT22;1441;48.886;8.728;2023-05-07T00:27:22;13.90;96.80
2867;DHT22;1441;48.886;8.728;2023-05-07T00:29:48;13.90;96.60
2867;DHT22;1441;48.886;8.728;2023-05-07T00:32:13;13.80;96.60
2867;DHT22;1441;48.886;8.728;2023-05-07T00:34:39;13.80;96.70
2867;DHT22;1441;48.886;8.728;2023-05-07T00:37:05;13.80;96.30
2867;DHT22;1441;48.886;8.728;2023-05-07T00:39:32;13.60;97.10
2867;DHT22;1441;48.886;8.728;2023-05-07T00:41:58;13.50;97.70
2867;DHT22;1441;48.886;8.728;2023-05-07T00:44:24;13.50;97.70
2867;DHT22;1441;48.886;8.728;2023-05-07T00:46:50;13.50;97.90
2867;DHT22;1441;48.886;8.728;2023-05-07T00:49:16;13.50;97.90
2867;DHT22;1441;48.886;8.728;2023-05-07T00:51:42;13.80;97.10
2867;DHT22;1441;48.886;8.728;2023-05-07T00:54:08;13.80;96.50
2867;DHT22;1441;48.886;8.728;2023-05-07T00:56:34;13.70;97.00
2867;DHT22;1441;48.886;8.728;2023-05-07T00:59:01;13.50;97.70
2867;DHT22;1441;48.886;8.728;2023-05-07T01:01:28;13.60;97.10
2867;DHT22;1441;48.886;8.728;2023-05-07T01:03:53;13.70;97.00
2867;DHT22;1441;48.886;8.728;2023-05-07T01:06:20;13.60;97.10
2867;DHT22;1441;48.886;8.728;2023-05-07T01:08:46;13.50;97.10
2867;DHT22;1441;48.886;8.728;2023-05-07T01:11:13;13.50;97.40
2867;DHT22;1441;48.886;8.728;2023-05-07T01:13:39;13.30;97.90
2867;DHT22;1441;48.886;8.728;2023-05-07T01:16:05;13.30;98.40
2867;DHT22;1441;48.886;8.728;2023-05-07T01:18:31;13.20;98.80
2867;DHT22;1441;48.886;8.728;2023-05-07T01:21:01;13.20;98.60
2867;DHT22;1441;48.886;8.728;2023-05-07T01:23:29;13.20;98.40
2867;DHT22;1441;48.886;8.728;2023-05-07T01:25:56;13.20;98.50
2867;DHT22;1441;48.886;8.728;2023-05-07T01:28:22;13.20;98.70
2867;DHT22;1441;48.886;8.728;2023-05-07T01:31:02;13.10;98.70
2867;DHT22;1441;48.886;8.728;2023-05-07T01:33:33;13.20;98.80
2867;DHT22;1441;48.886;8.728;2023-05-07T01:36:00;13.30;98.40
2867;DHT22;1441;48.886;8.728;2023-05-07T01:38:29;13.30;98.50
2867;DHT22;1441;48.886;8.728;2023-05-07T01:40:55;13.20;98.40
2867;DHT22;1441;48.886;8.728;2023-05-07T01:43:21;13.20;98.40
2867;DHT22;1441;48.886;8.728;2023-05-07T01:45:47;13.10;98.50
2867;DHT22;1441;48.886;8.728;2023-05-07T01:48:14;13.10;98.70
2867;DHT22;1441;48.886;8.728;2023-05-07T01:50:41;13.10;99.40
2867;DHT22;1441;48.886;8.728;2023-05-07T01:53:08;13.10;99.20
2867;DHT22;1441;48.886;8.728;2023-05-07T01:55:33;13.10;99.60
2867;DHT22;1441;48.886;8.728;2023-05-07T01:57:59;13.10;99.40
2867;DHT22;1441;48.886;8.728;2023-05-07T02:00:25;13.10;99.20
2867;DHT22;1441;48.886;8.728;2023-05-07T02:02:50;13.10;99.00
2867;DHT22;1441;48.886;8.728;2023-05-07T02:05:17;13.10;98.80
2867;DHT22;1441;48.886;8.728;2023-05-07T02:07:42;13.10;98.90
2867;DHT22;1441;48.886;8.728;2023-05-07T02:10:08;13.20;98.90
2867;DHT22;1441;48.886;8.728;2023-05-07T02:12:34;13.20;99.10
2867;DHT22;1441;48.886;8.728;2023-05-07T02:14:59;13.20;98.90
2867;DHT22;1441;48.886;8.728;2023-05-07T02:17:25;13.10;98.90
2867;DHT22;1441;48.886;8.728;2023-05-07T02:19:51;13.10;99.20
2867;DHT22;1441;48.886;8.728;2023-05-07T02:22:16;13.00;99.30
2867;DHT22;1441;48.886;8.728;2023-05-07T02:24:42;12.90;99.70
2867;DHT22;1441;48.886;8.728;2023-05-07T02:27:07;12.90;99.50
2867;DHT22;1441;48.886;8.728;2023-05-07T02:29:33;12.90;99.80
2867;DHT22;1441;48.886;8.728;2023-05-07T02:31:58;13.10;99.80
2867;DHT22;1441;48.886;8.728;2023-05-07T02:34:24;13.20;99.20
2867;DHT22;1441;48.886;8.728;2023-05-07T02:36:49;13.30;98.60
2867;DHT22;1441;48.886;8.728;2023-05-07T02:39:16;13.40;98.60
2867;DHT22;1441;48.886;8.728;2023-05-07T02:41:42;13.40;98.50
2867;DHT22;1441;48.886;8.728;2023-05-07T02:44:07;13.20;99.10
2867;DHT22;1441;48.886;8.728;2023-05-07T02:46:33;13.10;99.50
2867;DHT22;1441;48.886;8.728;2023-05-07T02:48:58;13.00;99.70
2867;DHT22;1441;48.886;8.728;2023-05-07T02:51:25;12.90;99.90
2867;DHT22;1441;48.886;8.728;2023-05-07T02:53:51;12.90;99.90
2867;DHT22;1441;48.886;8.728;2023-05-07T02:56:16;12.90;99.90
2867;DHT22;1441;48.886;8.728;2023-05-07T02:58:42;12.80;99.90
2867;DHT22;1441;48.886;8.728;2023-05-07T03:01:08;12.80;99.90
2867;DHT22;1441;48.886;8.728;2023-05-07T03:03:34;12.90;99.90
2867;DHT22;1441;48.886;8.728;2023-05-07T03:06:00;13.00;99.90
2867;DHT22;1441;48.886;8.728;2023-05-07T03:08:26;13.10;99.90
2867;DHT22;1441;48.886;8.728;2023-05-07T03:10:51;13.20;99.40
2867;DHT22;1441;48.886;8.728;2023-05-07T03:13:17;13.00;99.70
2867;DHT22;1441;48.886;8.728;2023-05-07T03:15:43;12.90;99.90
2867;DHT22;1441;48.886;8.728;2023-05-07T03:18:09;13.00;99.90
2867;DHT22;1441;48.886;8.728;2023-05-07T03:20:34;13.00;99.90
2867;DHT22;1441;48.886;8.728;2023-05-07T03:23:01;13.00;99.90
2867;DHT22;1441;48.886;8.728;2023-05-07T03:25:27;12.80;99.90
2867;DHT22;1441;48.886;8.728;2023-05-07T03:27:53;12.70;99.90
2867;DHT22;1441;48.886;8.728;2023-05-07T03:30:18;12.60;99.90
2867;DHT22;1441;48.886;8.728;2023-05-07T03:32:44;12.60;99.90
2867;DHT22;1441;48.886;8.728;2023-05-07T03:35:09;12.60;99.90
2867;DHT22;1441;48.886;8.728;2023-05-07T03:37:35;12.60;99.90
2867;DHT22;1441;48.886;8.728;2023-05-07T03:40:01;12.60;99.90
2867;DHT22;1441;48.886;8.728;2023-05-07T03:42:28;12.60;99.90
2867;DHT22;1441;48.886;8.728;2023-05-07T03:44:54;12.60;99.90
2867;DHT22;1441;48.886;8.728;2023-05-07T03:47:19;12.50;99.90
2867;DHT22;1441;48.886;8.728;2023-05-07T03:49:45;12.50;99.90
2867;DHT22;1441;48.886;8.728;2023-05-07T03:52:10;12.50;99.90
2867;DHT22;1441;48.886;8.728;2023-05-07T03:54:36;12.50;99.90
2867;DHT22;1441;48.886;8.728;2023-05-07T03:57:02;12.50;99.90
2867;DHT22;1441;48.886;8.728;2023-05-07T03:59:27;12.50;99.90
2867;DHT22;1441;48.886;8.728;2023-05-07T04:01:53;12.50;99.90
2867;DHT22;1441;48.886;8.728;2023-05-07T04:04:18;12.50;99.90
2867;DHT22;1441;48.886;8.728;2023-05-07T04:06:45;12.50;99.90
2867;DHT22;1441;48.886;8.728;2023-05-07T04:09:11;12.50;99.90
2867;DHT22;1441;48.886;8.728;2023-05-07T04:11:36;12.40;99.90
2867;DHT22;1441;48.886;8.728;2023-05-07T04:14:02;12.40;99.90
2867;DHT22;1441;48.886;8.728;2023-05-07T04:16:27;12.40;99.90
2867;DHT22;1441;48.886;8.728;2023-05-07T04:18:53;12.40;99.90
2867;DHT22;1441;48.886;8.728;2023-05-07T04:21:20;12.40;99.90
2867;DHT22;1441;48.886;8.728;2023-05-07T04:23:47;12.40;99.90
2867;DHT22;1441;48.886;8.728;2023-05-07T04:26:13;12.50;99.90
2867;DHT22;1441;48.886;8.728;2023-05-07T04:28:39;12.50;99.90
2867;DHT22;1441;48.886;8.728;2023-05-07T04:31:05;12.50;99.90
2867;DHT22;1441;48.886;8.728;2023-05-07T04:33:31;12.60;99.90
2867;DHT22;1441;48.886;8.728;2023-05-07T04:35:57;12.60;99.90
2867;DHT22;1441;48.886;8.728;2023-05-07T04:38:22;12.60;99.90
2867;DHT22;1441;48.886;8.728;2023-05-07T04:40:49;12.50;99.90
2867;DHT22;1441;48.886;8.728;2023-05-07T04:43:14;12.60;99.90
2867;DHT22;1441;48.886;8.728;2023-05-07T04:45:41;12.70;99.90
2867;DHT22;1441;48.886;8.728;2023-05-07T04:48:09;12.90;99.90
2867;DHT22;1441;48.886;8.728;2023-05-07T04:50:35;13.00;99.90
2867;DHT22;1441;48.886;8.728;2023-05-07T04:53:00;13.10;99.90
2867;DHT22;1441;48.886;8.728;2023-05-07T04:55:26;13.20;99.80
2867;DHT22;1441;48.886;8.728;2023-05-07T04:57:52;13.10;99.90
2867;DHT22;1441;48.886;8.728;2023-05-07T05:00:18;13.00;99.90
2867;DHT22;1441;48.886;8.728;2023-05-07T05:02:45;12.90;99.90
2867;DHT22;1441;48.886;8.728;2023-05-07T05:05:11;12.90;99.90
2867;DHT22;1441;48.886;8.728;2023-05-07T05:07:36;12.90;99.90
2867;DHT22;1441;48.886;8.728;2023-05-07T05:10:02;13.00;99.90
2867;DHT22;1441;48.886;8.728;2023-05-07T05:12:29;13.10;99.90
2867;DHT22;1441;48.886;8.728;2023-05-07T05:14:55;13.20;99.90
2867;DHT22;1441;48.886;8.728;2023-05-07T05:17:21;13.30;99.90
2867;DHT22;1441;48.886;8.728;2023-05-07T05:19:46;13.60;99.70
2867;DHT22;1441;48.886;8.728;2023-05-07T05:22:12;13.90;98.80
2867;DHT22;1441;48.886;8.728;2023-05-07T05:24:37;13.90;98.30
2867;DHT22;1441;48.886;8.728;2023-05-07T05:27:03;13.80;99.00
2867;DHT22;1441;48.886;8.728;2023-05-07T05:29:29;13.90;99.20
2867;DHT22;1441;48.886;8.728;2023-05-07T05:31:55;13.90;99.40
2867;DHT22;1441;48.886;8.728;2023-05-07T05:34:21;14.00;99.40
2867;DHT22;1441;48.886;8.728;2023-05-07T05:36:47;14.10;99.20
2867;DHT22;1441;48.886;8.728;2023-05-07T05:39:13;14.10;99.50
2867;DHT22;1441;48.886;8.728;2023-05-07T05:41:39;14.10;99.90
2867;DHT22;1441;48.886;8.728;2023-05-07T05:44:05;14.20;99.70
2867;DHT22;1441;48.886;8.728;2023-05-07T05:46:31;14.40;99.20
2867;DHT22;1441;48.886;8.728;2023-05-07T05:48:58;14.60;99.00
2867;DHT22;1441;48.886;8.728;2023-05-07T05:51:24;14.90;98.60
2867;DHT22;1441;48.886;8.728;2023-05-07T05:53:50;15.40;97.00
2867;DHT22;1441;48.886;8.728;2023-05-07T05:56:16;16.40;94.30
2867;DHT22;1441;48.886;8.728;2023-05-07T05:58:41;18.00;88.70
2867;DHT22;1441;48.886;8.728;2023-05-07T06:01:08;20.10;80.60
2867;DHT22;1441;48.886;8.728;2023-05-07T06:03:34;21.60;76.20
2867;DHT22;1441;48.886;8.728;2023-05-07T06:06:00;22.20;74.20
2867;DHT22;1441;48.886;8.728;2023-05-07T06:08:29;23.60;69.60
2867;DHT22;1441;48.886;8.728;2023-05-07T06:10:55;25.00;64.80
2867;DHT22;1441;48.886;8.728;2023-05-07T06:13:21;24.10;67.90
2867;DHT22;1441;48.886;8.728;2023-05-07T06:15:49;23.60;71.00
2867;DHT22;1441;48.886;8.728;2023-05-07T06:18:15;23.60;71.40
2867;DHT22;1441;48.886;8.728;2023-05-07T06:20:41;24.90;66.00
2867;DHT22;1441;48.886;8.728;2023-05-07T06:23:06;26.60;61.40
2867;DHT22;1441;48.886;8.728;2023-05-07T06:25:32;26.60;61.90
2867;DHT22;1441;48.886;8.728;2023-05-07T06:27:57;27.30;59.70
2867;DHT22;1441;48.886;8.728;2023-05-07T06:30:23;28.40;56.60
2867;DHT22;1441;48.886;8.728;2023-05-07T06:32:49;27.60;58.50
2867;DHT22;1441;48.886;8.728;2023-05-07T06:35:14;28.00;56.70
2867;DHT22;1441;48.886;8.728;2023-05-07T06:37:41;28.40;56.00
2867;DHT22;1441;48.886;8.728;2023-05-07T06:40:08;28.10;58.80
2867;DHT22;1441;48.886;8.728;2023-05-07T06:42:35;28.50;55.80
2867;DHT22;1441;48.886;8.728;2023-05-07T06:45:01;29.20;54.00
2867;DHT22;1441;48.886;8.728;2023-05-07T06:47:26;29.10;55.00
2867;DHT22;1441;48.886;8.728;2023-05-07T06:49:52;29.70;54.10
2867;DHT22;1441;48.886;8.728;2023-05-07T06:52:18;29.50;53.30
2867;DHT22;1441;48.886;8.728;2023-05-07T06:54:43;29.70;53.20
2867;DHT22;1441;48.886;8.728;2023-05-07T06:57:09;30.00;52.90
2867;DHT22;1441;48.886;8.728;2023-05-07T06:59:34;30.00;52.90
2867;DHT22;1441;48.886;8.728;2023-05-07T07:02:00;29.50;53.30
2867;DHT22;1441;48.886;8.728;2023-05-07T07:04:25;29.70;54.10
2867;DHT22;1441;48.886;8.728;2023-05-07T07:06:53;29.00;55.50
2867;DHT22;1441;48.886;8.728;2023-05-07T07:09:19;28.90;55.10
2867;DHT22;1441;48.886;8.728;2023-05-07T07:11:45;29.00;55.30
2867;DHT22;1441;48.886;8.728;2023-05-07T07:14:10;28.20;56.80
2867;DHT22;1441;48.886;8.728;2023-05-07T07:16:36;28.20;56.70
2867;DHT22;1441;48.886;8.728;2023-05-07T07:19:01;27.20;58.50
2867;DHT22;1441;48.886;8.728;2023-05-07T07:21:27;26.20;60.50
2867;DHT22;1441;48.886;8.728;2023-05-07T07:23:52;25.10;62.40
2867;DHT22;1441;48.886;8.728;2023-05-07T07:26:18;24.70;63.50
2867;DHT22;1441;48.886;8.728;2023-05-07T07:28:44;24.00;64.70
2867;DHT22;1441;48.886;8.728;2023-05-07T07:31:10;22.90;67.60
2867;DHT22;1441;48.886;8.728;2023-05-07T07:33:36;22.40;69.30
2867;DHT22;1441;48.886;8.728;2023-05-07T07:36:02;22.20;70.70
2867;DHT22;1441;48.886;8.728;2023-05-07T07:38:27;21.90;71.40
2867;DHT22;1441;48.886;8.728;2023-05-07T07:40:53;22.00;70.90
2867;DHT22;1441;48.886;8.728;2023-05-07T07:43:19;21.90;71.10
2867;DHT22;1441;48.886;8.728;2023-05-07T07:45:44;21.80;71.30
2867;DHT22;1441;48.886;8.728;2023-05-07T07:48:11;21.70;72.00
2867;DHT22;1441;48.886;8.728;2023-05-07T07:50:36;21.80;72.20
2867;DHT22;1441;48.886;8.728;2023-05-07T07:53:03;21.70;74.10
2867;DHT22;1441;48.886;8.728;2023-05-07T07:55:29;22.20;71.60
2867;DHT22;1441;48.886;8.728;2023-05-07T07:57:57;22.20;71.00
2867;DHT22;1441;48.886;8.728;2023-05-07T08:00:23;22.10;71.30
2867;DHT22;1441;48.886;8.728;2023-05-07T08:02:48;22.20;70.80
2867;DHT22;1441;48.886;8.728;2023-05-07T08:05:17;22.30;71.10
2867;DHT22;1441;48.886;8.728;2023-05-07T08:07:44;22.50;70.70
2867;DHT22;1441;48.886;8.728;2023-05-07T08:10:16;23.00;70.90
2867;DHT22;1441;48.886;8.728;2023-05-07T08:13:08;24.40;67.90
2867;DHT22;1441;48.886;8.728;2023-05-07T08:15:39;25.20;64.80
2867;DHT22;1441;48.886;8.728;2023-05-07T08:18:05;25.50;64.00
2867;DHT22;1441;48.886;8.728;2023-05-07T08:20:31;25.10;64.90
2867;DHT22;1441;48.886;8.728;2023-05-07T08:22:56;26.30;63.10
2867;DHT22;1441;48.886;8.728;2023-05-07T08:25:22;27.00;60.20
2867;DHT22;1441;48.886;8.728;2023-05-07T08:27:47;27.60;59.60
2867;DHT22;1441;48.886;8.728;2023-05-07T08:30:13;27.50;60.10
2867;DHT22;1441;48.886;8.728;2023-05-07T08:32:39;27.20;60.60
2867;DHT22;1441;48.886;8.728;2023-05-07T08:35:05;26.80;61.50
2867;DHT22;1441;48.886;8.728;2023-05-07T08:37:31;26.50;62.00
2867;DHT22;1441;48.886;8.728;2023-05-07T08:39:56;26.30;62.70
2867;DHT22;1441;48.886;8.728;2023-05-07T08:42:23;26.70;62.70
2867;DHT22;1441;48.886;8.728;2023-05-07T08:44:51;27.70;61.30
2867;DHT22;1441;48.886;8.728;2023-05-07T08:47:22;28.40;59.40
2867;DHT22;1441;48.886;8.728;2023-05-07T08:49:48;30.00;56.80
2867;DHT22;1441;48.886;8.728;2023-05-07T08:52:15;29.80;55.30
2867;DHT22;1441;48.886;8.728;2023-05-07T08:54:40;29.10;56.80
2867;DHT22;1441;48.886;8.728;2023-05-07T08:57:06;29.30;56.40
2867;DHT22;1441;48.886;8.728;2023-05-07T08:59:31;30.40;55.10
2867;DHT22;1441;48.886;8.728;2023-05-07T09:01:57;31.00;54.10
2867;DHT22;1441;48.886;8.728;2023-05-07T09:04:23;31.40;52.90
2867;DHT22;1441;48.886;8.728;2023-05-07T09:06:48;32.30;51.90
2867;DHT22;1441;48.886;8.728;2023-05-07T09:09:17;32.20;52.40
2867;DHT22;1441;48.886;8.728;2023-05-07T09:11:44;32.60;51.50
2867;DHT22;1441;48.886;8.728;2023-05-07T09:14:09;32.90;51.50
2867;DHT22;1441;48.886;8.728;2023-05-07T09:16:35;32.20;52.50
2867;DHT22;1441;48.886;8.728;2023-05-07T09:19:00;32.30;52.10
2867;DHT22;1441;48.886;8.728;2023-05-07T09:21:26;32.70;51.90
2867;DHT22;1441;48.886;8.728;2023-05-07T09:23:53;33.00;51.30
2867;DHT22;1441;48.886;8.728;2023-05-07T09:26:23;33.30;50.40
2867;DHT22;1441;48.886;8.728;2023-05-07T09:28:50;33.20;51.30
2867;DHT22;1441;48.886;8.728;2023-05-07T09:31:16;32.90;51.50
2867;DHT22;1441;48.886;8.728;2023-05-07T09:33:42;32.80;52.40
2867;DHT22;1441;48.886;8.728;2023-05-07T09:36:09;33.20;50.60
2867;DHT22;1441;48.886;8.728;2023-05-07T09:38:37;33.20;50.00
2867;DHT22;1441;48.886;8.728;2023-05-07T09:41:07;32.70;51.10
2867;DHT22;1441;48.886;8.728;2023-05-07T09:43:36;31.80;51.80
2867;DHT22;1441;48.886;8.728;2023-05-07T09:46:05;30.50;54.30
2867;DHT22;1441;48.886;8.728;2023-05-07T09:48:32;29.50;57.80
2867;DHT22;1441;48.886;8.728;2023-05-07T09:51:02;28.60;61.40
2867;DHT22;1441;48.886;8.728;2023-05-07T09:53:30;28.00;62.60
2867;DHT22;1441;48.886;8.728;2023-05-07T09:55:57;27.70;61.90
2867;DHT22;1441;48.886;8.728;2023-05-07T09:58:23;27.70;61.60
2867;DHT22;1441;48.886;8.728;2023-05-07T10:00:51;27.00;63.70
2867;DHT22;1441;48.886;8.728;2023-05-07T10:03:18;26.40;64.30
2867;DHT22;1441;48.886;8.728;2023-05-07T10:05:44;26.20;66.20
2867;DHT22;1441;48.886;8.728;2023-05-07T10:08:13;26.10;65.30
2867;DHT22;1441;48.886;8.728;2023-05-07T10:10:38;25.90;63.80
2867;DHT22;1441;48.886;8.728;2023-05-07T10:13:05;25.90;63.60
2867;DHT22;1441;48.886;8.728;2023-05-07T10:15:35;26.10;64.90
2867;DHT22;1441;48.886;8.728;2023-05-07T10:18:03;26.60;65.20
2867;DHT22;1441;48.886;8.728;2023-05-07T10:20:28;27.00;64.60
2867;DHT22;1441;48.886;8.728;2023-05-07T10:22:56;27.20;64.50
2867;DHT22;1441;48.886;8.728;2023-05-07T10:25:26;27.60;64.40
2867;DHT22;1441;48.886;8.728;2023-05-07T10:27:55;27.70;65.40
2867;DHT22;1441;48.886;8.728;2023-05-07T10:30:32;27.30;65.00
2867;DHT22;1441;48.886;8.728;2023-05-07T10:33:03;27.40;64.40
2867;DHT22;1441;48.886;8.728;2023-05-07T10:35:36;27.70;63.60
2867;DHT22;1441;48.886;8.728;2023-05-07T10:38:03;27.90;64.00
2867;DHT22;1441;48.886;8.728;2023-05-07T10:40:30;27.80;63.40
2867;DHT22;1441;48.886;8.728;2023-05-07T10:43:00;27.40;64.30
2867;DHT22;1441;48.886;8.728;2023-05-07T10:45:27;27.00;65.20
2867;DHT22;1441;48.886;8.728;2023-05-07T10:48:14;27.00;65.40
2867;DHT22;1441;48.886;8.728;2023-05-07T10:50:44;27.20;63.60
2867;DHT22;1441;48.886;8.728;2023-05-07T10:55:47;28.20;62.90
2867;DHT22;1441;48.886;8.728;2023-05-07T11:00:48;28.70;61.20
2867;DHT22;1441;48.886;8.728;2023-05-07T11:03:14;28.60;60.50
2867;DHT22;1441;48.886;8.728;2023-05-07T11:05:41;28.30;62.00
2867;DHT22;1441;48.886;8.728;2023-05-07T11:08:06;27.70;62.90
2867;DHT22;1441;48.886;8.728;2023-05-07T11:10:53;27.30;63.30
2867;DHT22;1441;48.886;8.728;2023-05-07T11:13:45;27.20;63.00
2867;DHT22;1441;48.886;8.728;2023-05-07T11:18:51;26.60;66.20
2867;DHT22;1441;48.886;8.728;2023-05-07T11:24:05;26.50;66.10
2867;DHT22;1441;48.886;8.728;2023-05-07T11:29:14;26.40;63.90
2867;DHT22;1441;48.886;8.728;2023-05-07T11:31:40;26.80;64.10
2867;DHT22;1441;48.886;8.728;2023-05-07T11:34:06;26.90;62.30
2867;DHT22;1441;48.886;8.728;2023-05-07T11:36:33;26.60;63.00
2867;DHT22;1441;48.886;8.728;2023-05-07T11:38:59;26.10;63.60
2867;DHT22;1441;48.886;8.728;2023-05-07T11:41:37;26.00;64.50
2867;DHT22;1441;48.886;8.728;2023-05-07T11:44:03;26.10;63.50
2867;DHT22;1441;48.886;8.728;2023-05-07T11:46:29;26.00;65.80
2867;DHT22;1441;48.886;8.728;2023-05-07T11:48:55;25.80;67.10
2867;DHT22;1441;48.886;8.728;2023-05-07T11:51:23;25.80;69.10
2867;DHT22;1441;48.886;8.728;2023-05-07T11:53:50;25.70;69.40
2867;DHT22;1441;48.886;8.728;2023-05-07T11:56:17;25.60;69.20
2867;DHT22;1441;48.886;8.728;2023-05-07T11:58:43;25.60;69.10
2867;DHT22;1441;48.886;8.728;2023-05-07T12:01:11;26.00;66.10
2867;DHT22;1441;48.886;8.728;2023-05-07T12:03:37;26.10;67.30
2867;DHT22;1441;48.886;8.728;2023-05-07T12:06:08;25.90;68.80
2867;DHT22;1441;48.886;8.728;2023-05-07T12:08:36;25.80;68.50
2867;DHT22;1441;48.886;8.728;2023-05-07T12:11:03;25.60;68.40
2867;DHT22;1441;48.886;8.728;2023-05-07T12:13:28;25.40;69.70
2867;DHT22;1441;48.886;8.728;2023-05-07T12:15:55;25.20;69.40
2867;DHT22;1441;48.886;8.728;2023-05-07T12:18:22;25.30;64.30
2867;DHT22;1441;48.886;8.728;2023-05-07T12:20:49;25.10;66.20
2867;DHT22;1441;48.886;8.728;2023-05-07T12:23:15;24.80;64.90
2867;DHT22;1441;48.886;8.728;2023-05-07T12:25:43;24.60;66.60
2867;DHT22;1441;48.886;8.728;2023-05-07T12:28:18;24.30;68.60
2867;DHT22;1441;48.886;8.728;2023-05-07T12:30:46;24.30;61.90
2867;DHT22;1441;48.886;8.728;2023-05-07T12:33:14;24.30;60.10
2867;DHT22;1441;48.886;8.728;2023-05-07T12:35:42;24.20;61.60
2867;DHT22;1441;48.886;8.728;2023-05-07T12:38:09;23.90;64.90
2867;DHT22;1441;48.886;8.728;2023-05-07T12:40:41;23.80;67.60
2867;DHT22;1441;48.886;8.728;2023-05-07T12:43:07;23.70;71.80
2867;DHT22;1441;48.886;8.728;2023-05-07T12:45:40;23.40;78.00
2867;DHT22;1441;48.886;8.728;2023-05-07T12:48:06;22.70;81.60
2867;DHT22;1441;48.886;8.728;2023-05-07T12:50:34;21.90;84.60
2867;DHT22;1441;48.886;8.728;2023-05-07T12:53:00;21.30;87.20
2867;DHT22;1441;48.886;8.728;2023-05-07T12:55:31;20.80;90.00
2867;DHT22;1441;48.886;8.728;2023-05-07T12:57:57;20.50;91.60
2867;DHT22;1441;48.886;8.728;2023-05-07T13:00:37;20.20;91.60
2867;DHT22;1441;48.886;8.728;2023-05-07T13:03:04;19.90;92.20
2867;DHT22;1441;48.886;8.728;2023-05-07T13:05:30;19.50;95.70
2867;DHT22;1441;48.886;8.728;2023-05-07T13:07:56;19.00;98.30
2867;DHT22;1441;48.886;8.728;2023-05-07T13:10:26;18.90;98.10
2867;DHT22;1441;48.886;8.728;2023-05-07T13:12:52;18.70;98.40
2867;DHT22;1441;48.886;8.728;2023-05-07T13:15:18;18.50;99.90
2867;DHT22;1441;48.886;8.728;2023-05-07T13:17:44;18.30;99.90
2867;DHT22;1441;48.886;8.728;2023-05-07T13:20:10;18.20;99.90
2867;DHT22;1441;48.886;8.728;2023-05-07T13:22:37;18.10;99.90
2867;DHT22;1441;48.886;8.728;2023-05-07T13:25:02;18.10;99.90
2867;DHT22;1441;48.886;8.728;2023-05-07T13:27:28;18.10;99.90
2867;DHT22;1441;48.886;8.728;2023-05-07T13:29:56;18.10;99.90
2867;DHT22;1441;48.886;8.728;2023-05-07T13:32:21;18.10;99.90
2867;DHT22;1441;48.886;8.728;2023-05-07T13:34:47;18.20;99.90
2867;DHT22;1441;48.886;8.728;2023-05-07T13:37:12;18.00;99.90
2867;DHT22;1441;48.886;8.728;2023-05-07T13:39:38;17.90;99.90
2867;DHT22;1441;48.886;8.728;2023-05-07T13:42:03;17.90;99.90
2867;DHT22;1441;48.886;8.728;2023-05-07T13:44:29;17.80;99.90
2867;DHT22;1441;48.886;8.728;2023-05-07T13:46:55;17.70;99.90
2867;DHT22;1441;48.886;8.728;2023-05-07T13:49:21;17.70;99.90
2867;DHT22;1441;48.886;8.728;2023-05-07T13:51:46;17.60;99.90
2867;DHT22;1441;48.886;8.728;2023-05-07T13:54:12;17.70;99.90
2867;DHT22;1441;48.886;8.728;2023-05-07T13:56:38;17.60;99.90
2867;DHT22;1441;48.886;8.728;2023-05-07T13:59:04;17.70;99.90
2867;DHT22;1441;48.886;8.728;2023-05-07T14:01:31;17.70;99.90
2867;DHT22;1441;48.886;8.728;2023-05-07T14:03:56;17.80;99.90
2867;DHT22;1441;48.886;8.728;2023-05-07T14:06:25;18.10;99.90
2867;DHT22;1441;48.886;8.728;2023-05-07T14:08:51;18.10;99.90
2867;DHT22;1441;48.886;8.728;2023-05-07T14:11:16;18.10;99.90
2867;DHT22;1441;48.886;8.728;2023-05-07T14:13:42;18.20;99.90
2867;DHT22;1441;48.886;8.728;2023-05-07T14:16:08;18.30;99.90
2867;DHT22;1441;48.886;8.728;2023-05-07T14:18:33;18.40;99.80
2867;DHT22;1441;48.886;8.728;2023-05-07T14:20:59;18.40;99.40
2867;DHT22;1441;48.886;8.728;2023-05-07T14:23:25;18.40;97.40
2867;DHT22;1441;48.886;8.728;2023-05-07T14:25:52;18.50;98.30
2867;DHT22;1441;48.886;8.728;2023-05-07T14:28:18;18.60;97.30
2867;DHT22;1441;48.886;8.728;2023-05-07T14:30:44;18.70;98.60
2867;DHT22;1441;48.886;8.728;2023-05-07T14:33:10;18.70;97.10
2867;DHT22;1441;48.886;8.728;2023-05-07T14:35:35;18.60;99.20
2867;DHT22;1441;48.886;8.728;2023-05-07T14:38:01;18.50;99.90
2867;DHT22;1441;48.886;8.728;2023-05-07T14:40:26;18.70;99.70
2867;DHT22;1441;48.886;8.728;2023-05-07T14:42:52;18.70;99.70
2867;DHT22;1441;48.886;8.728;2023-05-07T14:45:18;18.50;99.90
2867;DHT22;1441;48.886;8.728;2023-05-07T14:47:43;18.40;99.90
2867;DHT22;1441;48.886;8.728;2023-05-07T14:50:09;18.40;99.90
2867;DHT22;1441;48.886;8.728;2023-05-07T14:52:34;18.50;99.90
2867;DHT22;1441;48.886;8.728;2023-05-07T14:55:00;19.00;99.90
2867;DHT22;1441;48.886;8.728;2023-05-07T14:57:25;19.20;99.10
2867;DHT22;1441;48.886;8.728;2023-05-07T14:59:51;19.20;99.50
2867;DHT22;1441;48.886;8.728;2023-05-07T15:02:17;19.20;99.10
2867;DHT22;1441;48.886;8.728;2023-05-07T15:04:43;19.00;97.60
2867;DHT22;1441;48.886;8.728;2023-05-07T15:07:13;19.00;98.10
2867;DHT22;1441;48.886;8.728;2023-05-07T15:09:42;19.00;97.90
2867;DHT22;1441;48.886;8.728;2023-05-07T15:12:08;19.00;97.90
2867;DHT22;1441;48.886;8.728;2023-05-07T15:14:34;19.00;98.20
2867;DHT22;1441;48.886;8.728;2023-05-07T15:17:00;19.20;98.00
2867;DHT22;1441;48.886;8.728;2023-05-07T15:19:25;19.20;98.10
2867;DHT22;1441;48.886;8.728;2023-05-07T15:21:56;19.10;98.00
2867;DHT22;1441;48.886;8.728;2023-05-07T15:24:23;18.80;99.90
2867;DHT22;1441;48.886;8.728;2023-05-07T15:26:48;18.70;99.90
2867;DHT22;1441;48.886;8.728;2023-05-07T15:29:14;18.80;99.90
2867;DHT22;1441;48.886;8.728;2023-05-07T15:31:40;18.60;99.90
2867;DHT22;1441;48.886;8.728;2023-05-07T15:34:05;18.80;99.90
2867;DHT22;1441;48.886;8.728;2023-05-07T15:36:31;18.80;99.90
2867;DHT22;1441;48.886;8.728;2023-05-07T15:38:57;18.70;99.90
2867;DHT22;1441;48.886;8.728;2023-05-07T15:41:22;19.00;99.90
2867;DHT22;1441;48.886;8.728;2023-05-07T15:43:50;19.10;99.60
2867;DHT22;1441;48.886;8.728;2023-05-07T15:46:21;18.80;99.90
2867;DHT22;1441;48.886;8.728;2023-05-07T15:48:49;18.70;99.90
2867;DHT22;1441;48.886;8.728;2023-05-07T15:51:15;19.00;99.90
2867;DHT22;1441;48.886;8.728;2023-05-07T15:53:42;19.00;99.90
2867;DHT22;1441;48.886;8.728;2023-05-07T15:56:08;18.80;99.90
2867;DHT22;1441;48.886;8.728;2023-05-07T15:58:34;18.70;99.90
2867;DHT22;1441;48.886;8.728;2023-05-07T16:01:00;18.60;99.90
2867;DHT22;1441;48.886;8.728;2023-05-07T16:03:27;18.50;99.90
2867;DHT22;1441;48.886;8.728;2023-05-07T16:05:53;18.50;99.90
2867;DHT22;1441;48.886;8.728;2023-05-07T16:08:19;18.50;99.90
2867;DHT22;1441;48.886;8.728;2023-05-07T16:10:44;18.40;99.90